Time;durP1;ratioP1;P1;durP2;ratioP2;P2;SDS_P1;SDS_P2;PMS_P1;PMS_P2;Temp;Humidity;BMP_temperature;BMP_pressure;BME280_temperature;BME280_humidity;BME280_pressure;Samples;Min_cycle;Max_cycle;Signal;HPM_P1;HPM_P2
2021/12/28 00:01:00;;;;;;;21.00;13.30;;;1.20;99.90;;;;;;5030350;28;20174;-80
2021/12/28 00:03:26;;;;;;;21.97;14.03;;;1.20;99.90;;;;;;5047528;28;20566;-80
2021/12/28 00:05:53;;;;;;;20.00;13.13;;;1.10;99.90;;;;;;5030024;28;20182;-79
2021/12/28 00:08:19;;;;;;;19.90;13.43;;;1.20;99.90;;;;;;5048138;28;20170;-79
2021/12/28 00:10:46;;;;;;;20.83;13.53;;;1.20;99.90;;;;;;5030548;28;20567;-79
2021/12/28 00:13:12;;;;;;;19.50;12.73;;;1.10;99.90;;;;;;5049425;28;20186;-79
2021/12/28 00:18:22;;;;;;;19.43;13.13;;;1.20;99.90;;;;;;5049208;28;20249;-79
2021/12/28 00:20:52;;;;;;;22.40;13.00;;;1.20;99.90;;;;;;5049314;28;20213;-79
2021/12/28 00:23:36;;;;;;;19.77;12.37;;;1.20;99.90;;;;;;5048676;28;20272;-79
2021/12/28 00:26:03;;;;;;;19.50;12.03;;;1.10;99.90;;;;;;5030355;28;20182;-80
2021/12/28 00:28:28;;;;;;;17.17;11.40;;;1.00;99.90;;;;;;5029722;28;20227;-79
2021/12/28 00:30:54;;;;;;;16.67;11.47;;;1.00;99.90;;;;;;5029379;28;20217;-80
2021/12/28 00:33:22;;;;;;;19.60;11.63;;;0.90;99.90;;;;;;5048123;28;20323;-79
2021/12/28 00:35:48;;;;;;;18.97;12.27;;;1.00;99.90;;;;;;5030095;28;20182;-80
2021/12/28 00:38:21;;;;;;;18.67;12.30;;;1.00;99.90;;;;;;5030290;28;20193;-78
2021/12/28 00:40:49;;;;;;;19.37;12.37;;;1.10;99.90;;;;;;5030321;28;20296;-79
2021/12/28 00:43:15;;;;;;;19.17;12.50;;;1.00;99.90;;;;;;5048352;28;20206;-79
2021/12/28 00:45:41;;;;;;;20.17;12.63;;;1.00;99.90;;;;;;5031493;28;20235;-78
2021/12/28 00:48:07;;;;;;;18.27;12.10;;;1.00;99.90;;;;;;5047745;28;20579;-79
2021/12/28 00:50:33;;;;;;;19.43;12.50;;;1.10;99.90;;;;;;5029762;28;20186;-79
2021/12/28 00:52:58;;;;;;;16.80;11.63;;;1.10;99.90;;;;;;5048557;28;20178;-79
2021/12/28 00:55:25;;;;;;;18.00;11.47;;;1.10;99.90;;;;;;5031227;28;20174;-79
2021/12/28 00:57:51;;;;;;;20.27;11.90;;;1.00;99.90;;;;;;5030704;28;20174;-79
2021/12/28 01:00:24;;;;;;;18.27;12.10;;;1.00;99.90;;;;;;5048399;28;20198;-79
2021/12/28 01:02:50;;;;;;;20.17;12.93;;;1.00;99.90;;;;;;5031038;28;20179;-78
2021/12/28 01:05:16;;;;;;;20.90;12.97;;;1.00;99.90;;;;;;5030817;28;20790;-79
2021/12/28 01:07:42;;;;;;;19.80;12.40;;;1.00;99.90;;;;;;5049017;28;20194;-78
2021/12/28 01:10:16;;;;;;;19.80;11.63;;;0.90;99.90;;;;;;5048110;28;20209;-79
2021/12/28 01:12:44;;;;;;;18.87;11.70;;;1.00;99.90;;;;;;5048464;28;20198;-79
2021/12/28 01:15:11;;;;;;;19.63;12.07;;;1.00;99.90;;;;;;5030323;28;20186;-79
2021/12/28 01:17:37;;;;;;;20.60;12.77;;;1.00;99.90;;;;;;5047176;28;20179;-78
2021/12/28 01:20:05;;;;;;;19.00;11.77;;;1.10;99.90;;;;;;5030170;28;20182;-79
2021/12/28 01:22:31;;;;;;;18.33;11.40;;;1.10;99.90;;;;;;5048121;28;20204;-79
2021/12/28 01:24:57;;;;;;;18.13;11.93;;;1.10;99.90;;;;;;5047217;28;20212;-79
2021/12/28 01:27:23;;;;;;;19.70;12.33;;;1.10;99.90;;;;;;5048115;28;20241;-79
2021/12/28 01:29:48;;;;;;;18.03;11.27;;;1.10;99.90;;;;;;5030073;28;20210;-79
2021/12/28 01:32:14;;;;;;;19.63;12.40;;;1.10;99.90;;;;;;5046943;28;20186;-78
2021/12/28 01:34:40;;;;;;;18.43;11.13;;;1.00;99.90;;;;;;5029120;28;20208;-79
2021/12/28 01:37:05;;;;;;;19.73;12.57;;;1.00;99.90;;;;;;5047096;28;20236;-78
2021/12/28 01:39:31;;;;;;;20.37;12.93;;;1.00;99.90;;;;;;5046690;28;20278;-79
2021/12/28 01:41:59;;;;;;;17.00;11.93;;;1.10;99.90;;;;;;5046662;28;20181;-78
2021/12/28 01:44:25;;;;;;;18.80;12.40;;;1.00;99.90;;;;;;5046652;28;20248;-78
2021/12/28 01:46:50;;;;;;;19.47;12.23;;;1.00;99.90;;;;;;5046530;28;20186;-79
2021/12/28 01:49:16;;;;;;;20.17;13.07;;;1.00;99.90;;;;;;5046449;28;20206;-78
2021/12/28 01:51:41;;;;;;;19.60;12.70;;;1.00;99.90;;;;;;5028913;28;20679;-80
2021/12/28 01:54:07;;;;;;;19.10;12.20;;;0.90;99.90;;;;;;5028782;28;20206;-78
2021/12/28 01:56:45;;;;;;;23.00;12.20;;;0.90;99.90;;;;;;5045527;28;20620;-78
2021/12/28 01:59:13;;;;;;;18.63;11.13;;;0.90;99.90;;;;;;5046236;28;20205;-79
2021/12/28 02:01:39;;;;;;;21.90;12.10;;;1.00;99.90;;;;;;5028400;28;20177;-78
2021/12/28 02:04:18;;;;;;;18.50;12.53;;;1.00;99.90;;;;;;5046345;28;20194;-78
2021/12/28 02:06:44;;;;;;;17.63;11.67;;;1.00;99.90;;;;;;5045193;28;20670;-78
2021/12/28 02:09:10;;;;;;;17.80;12.23;;;1.00;99.90;;;;;;5046167;28;20261;-78
2021/12/28 02:11:36;;;;;;;22.37;13.17;;;1.10;99.90;;;;;;5027977;28;20202;-79
2021/12/28 02:14:05;;;;;;;19.00;12.27;;;1.10;99.90;;;;;;5029244;28;20237;-78
2021/12/28 02:16:31;;;;;;;21.73;12.43;;;1.10;99.90;;;;;;5029911;28;20184;-79
2021/12/28 02:18:56;;;;;;;20.43;12.63;;;1.10;99.90;;;;;;5029434;28;20195;-78
2021/12/28 02:21:22;;;;;;;20.00;12.40;;;1.00;99.90;;;;;;5029204;28;20178;-79
2021/12/28 02:23:48;;;;;;;18.73;12.57;;;1.00;99.90;;;;;;5047417;28;20210;-78
2021/12/28 02:26:14;;;;;;;20.33;13.13;;;1.10;99.90;;;;;;5029275;28;20248;-79
2021/12/28 02:28:39;;;;;;;18.67;12.20;;;1.00;99.90;;;;;;5047148;28;20194;-79
2021/12/28 02:31:05;;;;;;;18.73;12.60;;;1.10;99.90;;;;;;5029008;28;20209;-79
2021/12/28 02:33:33;;;;;;;20.00;12.43;;;1.10;99.90;;;;;;5047322;28;20674;-78
2021/12/28 02:36:02;;;;;;;21.23;12.70;;;1.10;99.90;;;;;;5029484;28;20192;-79
2021/12/28 02:38:29;;;;;;;21.50;13.13;;;1.20;99.90;;;;;;5047427;28;20227;-78
2021/12/28 02:40:55;;;;;;;19.03;12.43;;;1.20;99.90;;;;;;5028712;28;20182;-79
2021/12/28 02:43:21;;;;;;;20.67;12.37;;;1.20;99.90;;;;;;5046955;28;20259;-79
2021/12/28 02:45:52;;;;;;;23.00;12.27;;;1.10;99.90;;;;;;5029529;28;20182;-79
2021/12/28 02:48:19;;;;;;;21.30;12.00;;;1.20;99.90;;;;;;5028966;28;20174;-79
2021/12/28 02:50:48;;;;;;;22.47;12.47;;;1.30;99.90;;;;;;5046112;28;20288;-79
2021/12/28 02:53:18;;;;;;;20.40;11.83;;;1.30;99.90;;;;;;5027175;28;20262;-78
2021/12/28 02:55:45;;;;;;;21.03;12.07;;;1.30;99.90;;;;;;5027787;28;20179;-79
2021/12/28 02:58:22;;;;;;;18.63;11.73;;;1.30;99.90;;;;;;5028089;28;20178;-79
2021/12/28 03:00:52;;;;;;;17.60;11.67;;;1.30;99.90;;;;;;5027800;28;20186;-78
2021/12/28 03:03:27;;;;;;;17.37;11.67;;;1.40;99.90;;;;;;5027677;28;20202;-80
2021/12/28 03:05:55;;;;;;;16.07;11.17;;;1.50;99.90;;;;;;5028734;28;21093;-80
2021/12/28 03:08:23;;;;;;;15.60;10.87;;;1.50;99.90;;;;;;5045491;28;20178;-79
2021/12/28 03:10:49;;;;;;;14.53;9.73;;;1.50;99.90;;;;;;5044174;28;20198;-78
2021/12/28 03:13:22;;;;;;;18.13;11.13;;;1.50;99.90;;;;;;5045556;28;20728;-79
2021/12/28 03:15:48;;;;;;;15.50;10.47;;;1.50;99.90;;;;;;5045691;28;20174;-79
2021/12/28 03:18:14;;;;;;;17.33;11.47;;;1.50;99.90;;;;;;5045722;28;20213;-79
2021/12/28 03:20:40;;;;;;;18.97;10.77;;;1.60;99.90;;;;;;5045687;28;20235;-79
2021/12/28 03:23:06;;;;;;;16.30;10.13;;;1.60;99.90;;;;;;5045465;28;20217;-78
2021/12/28 03:25:33;;;;;;;17.93;10.50;;;1.60;99.90;;;;;;5028046;28;20178;-79
2021/12/28 03:28:00;;;;;;;15.27;10.10;;;1.60;99.90;;;;;;5027955;28;20182;-79
2021/12/28 03:30:25;;;;;;;18.90;10.97;;;1.70;99.90;;;;;;5027826;28;20210;-79
2021/12/28 03:32:51;;;;;;;18.13;10.80;;;1.60;99.90;;;;;;5045705;28;20670;-79
2021/12/28 03:35:17;;;;;;;18.67;10.87;;;1.60;99.90;;;;;;5028174;28;20744;-78
2021/12/28 03:37:43;;;;;;;18.03;11.70;;;1.60;99.90;;;;;;5028491;28;20182;-80
2021/12/28 03:40:12;;;;;;;16.33;10.37;;;1.60;99.90;;;;;;5045864;28;20217;-79
2021/12/28 03:42:39;;;;;;;15.97;10.27;;;1.60;99.90;;;;;;5027502;28;20220;-78
2021/12/28 03:45:06;;;;;;;16.40;10.50;;;1.60;99.90;;;;;;5044525;28;20206;-79
2021/12/28 03:47:33;;;;;;;16.87;10.20;;;1.60;99.90;;;;;;5028138;28;20202;-80
2021/12/28 03:49:59;;;;;;;16.03;10.73;;;1.60;99.90;;;;;;5046771;28;20210;-79
2021/12/28 03:52:24;;;;;;;15.20;10.00;;;1.60;99.90;;;;;;5047001;28;20236;-80
2021/12/28 03:54:50;;;;;;;18.27;10.93;;;1.60;99.90;;;;;;5027509;28;20224;-79
2021/12/28 03:57:16;;;;;;;17.83;11.80;;;1.60;99.90;;;;;;5028392;28;20493;-80
2021/12/28 03:59:42;;;;;;;16.13;11.27;;;1.60;99.90;;;;;;5028319;28;20178;-79
2021/12/28 04:02:07;;;;;;;16.07;10.20;;;1.50;99.90;;;;;;5027470;28;20185;-80
2021/12/28 04:04:33;;;;;;;17.90;11.10;;;1.40;99.90;;;;;;5027192;28;21760;-79
2021/12/28 04:06:59;;;;;;;19.80;10.27;;;1.50;99.90;;;;;;5026786;28;20197;-80
2021/12/28 04:09:56;;;;;;;16.77;11.17;;;1.50;99.90;;;;;;5027385;28;20178;-80
2021/12/28 04:12:11;;;;;;;16.40;10.20;;;1.50;99.90;;;;;;5045197;28;20561;-80
2021/12/28 04:14:36;;;;;;;16.07;10.57;;;1.50;99.90;;;;;;5045630;28;20202;-79
2021/12/28 04:17:02;;;;;;;16.50;10.70;;;1.50;99.90;;;;;;5027759;28;20183;-78
2021/12/28 04:19:28;;;;;;;17.30;10.73;;;1.50;99.90;;;;;;5046855;28;20682;-79
2021/12/28 04:21:53;;;;;;;17.47;10.70;;;1.60;99.90;;;;;;5048528;28;20225;-78
2021/12/28 04:24:19;;;;;;;16.57;10.30;;;1.60;99.90;;;;;;5030954;28;21279;-80
2021/12/28 04:26:45;;;;;;;15.77;10.13;;;1.60;99.90;;;;;;5030878;28;20182;-80
2021/12/28 04:29:10;;;;;;;15.70;10.07;;;1.60;99.90;;;;;;5029732;28;20233;-79
2021/12/28 04:31:36;;;;;;;18.70;11.37;;;1.60;99.90;;;;;;5030073;28;20296;-79
2021/12/28 04:34:02;;;;;;;18.53;10.43;;;1.70;99.90;;;;;;5029714;28;20210;-80
2021/12/28 04:36:28;;;;;;;15.57;10.63;;;1.70;99.90;;;;;;5029019;28;20182;-80
2021/12/28 04:38:53;;;;;;;20.63;11.17;;;1.70;99.90;;;;;;5029523;28;20183;-80
2021/12/28 04:41:19;;;;;;;15.10;9.50;;;1.80;99.90;;;;;;5029219;28;20235;-80
2021/12/28 04:43:47;;;;;;;15.77;10.10;;;1.80;99.90;;;;;;5030248;28;20289;-80
2021/12/28 04:46:12;;;;;;;16.07;10.53;;;1.80;99.90;;;;;;5046206;28;20677;-80
2021/12/28 04:48:38;;;;;;;15.70;9.70;;;1.80;99.90;;;;;;5049003;28;20220;-79
2021/12/28 04:51:04;;;;;;;15.83;9.40;;;1.80;99.90;;;;;;5030002;28;20695;-79
2021/12/28 04:53:31;;;;;;;15.13;9.90;;;1.70;99.90;;;;;;5031033;28;20190;-79
2021/12/28 04:55:57;;;;;;;14.53;9.23;;;1.70;99.90;;;;;;5048020;28;20257;-80
2021/12/28 04:58:23;;;;;;;17.10;10.13;;;1.70;99.90;;;;;;5048318;28;20257;-80
2021/12/28 05:00:51;;;;;;;15.30;10.83;;;1.70;99.90;;;;;;5047730;28;20660;-80
2021/12/28 05:03:17;;;;;;;15.03;10.07;;;1.70;99.90;;;;;;5047870;28;20251;-79
2021/12/28 05:05:45;;;;;;;15.90;10.63;;;1.60;99.90;;;;;;5030043;28;20186;-79
2021/12/28 05:08:12;;;;;;;16.70;10.43;;;1.50;99.90;;;;;;5029999;28;20396;-80
2021/12/28 05:10:39;;;;;;;15.57;10.20;;;1.50;99.90;;;;;;5029774;28;20251;-80
2021/12/28 05:13:05;;;;;;;14.67;9.27;;;1.50;99.90;;;;;;5046322;28;20230;-79
2021/12/28 05:15:31;;;;;;;14.97;9.33;;;1.50;99.90;;;;;;5048308;28;20583;-80
2021/12/28 05:17:57;;;;;;;15.73;9.67;;;1.50;99.90;;;;;;5047625;28;20175;-80
2021/12/28 05:20:23;;;;;;;15.87;9.47;;;1.50;99.90;;;;;;5029636;28;20193;-80
2021/12/28 05:22:49;;;;;;;17.43;11.03;;;1.60;99.90;;;;;;5030391;28;20191;-80
2021/12/28 05:25:14;;;;;;;14.33;9.77;;;1.50;99.90;;;;;;5048039;28;20186;-79
2021/12/28 05:27:41;;;;;;;15.23;9.63;;;1.50;99.90;;;;;;5030211;28;20672;-80
2021/12/28 05:30:08;;;;;;;13.93;9.77;;;1.60;99.90;;;;;;5046818;28;20217;-80
2021/12/28 05:32:34;;;;;;;15.00;8.80;;;1.60;99.90;;;;;;5047633;28;20244;-80
2021/12/28 05:34:59;;;;;;;14.60;9.57;;;1.60;99.90;;;;;;5047467;28;20241;-80
2021/12/28 05:37:25;;;;;;;15.97;10.50;;;1.70;99.90;;;;;;5029329;28;20213;-81
2021/12/28 05:39:51;;;;;;;16.07;10.23;;;1.70;99.90;;;;;;5028494;28;20324;-79
2021/12/28 05:42:16;;;;;;;15.33;9.73;;;1.80;99.90;;;;;;5029180;28;20609;-79
2021/12/28 05:44:42;;;;;;;13.87;8.90;;;1.80;99.90;;;;;;5029168;28;20206;-79
2021/12/28 05:47:08;;;;;;;14.43;8.97;;;1.70;99.90;;;;;;5046167;28;20197;-81
2021/12/28 05:49:33;;;;;;;16.27;9.50;;;1.70;99.90;;;;;;5028295;28;20285;-81
2021/12/28 05:51:59;;;;;;;15.73;9.77;;;1.70;99.90;;;;;;5028194;28;20225;-79
2021/12/28 05:54:25;;;;;;;15.57;9.50;;;1.60;99.90;;;;;;5029006;28;20225;-80
2021/12/28 05:56:50;;;;;;;14.60;9.27;;;1.50;99.90;;;;;;5047033;28;20190;-80
2021/12/28 05:59:16;;;;;;;17.10;9.77;;;1.50;99.90;;;;;;5046676;28;20174;-79
2021/12/28 06:01:42;;;;;;;17.03;9.73;;;1.50;99.90;;;;;;5028353;28;20600;-79
2021/12/28 06:04:08;;;;;;;15.60;10.23;;;1.40;99.90;;;;;;5046415;28;20627;-79
2021/12/28 06:06:34;;;;;;;14.40;9.83;;;1.40;99.90;;;;;;5046252;28;20218;-79
2021/12/28 06:08:59;;;;;;;15.73;9.70;;;1.40;99.90;;;;;;5046120;28;20186;-79
2021/12/28 06:11:25;;;;;;;13.43;8.60;;;1.30;99.90;;;;;;5028387;28;20214;-80
2021/12/28 06:13:51;;;;;;;14.13;9.53;;;1.40;99.90;;;;;;5028603;28;20249;-79
2021/12/28 06:16:16;;;;;;;15.63;9.67;;;1.40;99.90;;;;;;5027964;28;20182;-79
2021/12/28 06:18:42;;;;;;;15.03;8.90;;;1.40;99.90;;;;;;5028909;28;20185;-79
2021/12/28 06:21:08;;;;;;;14.00;9.40;;;1.40;99.90;;;;;;5046232;28;20273;-79
2021/12/28 06:23:34;;;;;;;15.63;9.10;;;1.40;99.90;;;;;;5028876;28;20242;-81
2021/12/28 06:26:00;;;;;;;15.53;9.60;;;1.40;99.90;;;;;;5046801;28;20260;-80
2021/12/28 06:28:26;;;;;;;15.53;9.90;;;1.40;99.90;;;;;;5046447;28;20194;-79
2021/12/28 06:30:53;;;;;;;13.97;9.17;;;1.40;99.90;;;;;;5045683;28;20206;-79
2021/12/28 06:33:20;;;;;;;14.47;8.60;;;1.40;99.90;;;;;;5028555;28;20212;-79
2021/12/28 06:35:46;;;;;;;13.73;8.20;;;1.40;99.90;;;;;;5046443;28;20182;-79
2021/12/28 06:38:12;;;;;;;13.73;8.73;;;1.40;99.90;;;;;;5046401;28;20674;-79
2021/12/28 06:40:37;;;;;;;13.53;8.53;;;1.40;99.90;;;;;;5046214;28;20186;-79
2021/12/28 06:43:03;;;;;;;15.00;9.57;;;1.40;99.90;;;;;;5027942;28;20217;-79
2021/12/28 06:45:28;;;;;;;14.67;8.83;;;1.50;99.90;;;;;;5046145;28;20533;-81
2021/12/28 06:47:54;;;;;;;13.67;8.33;;;1.60;99.90;;;;;;5046446;28;20197;-78
2021/12/28 06:50:20;;;;;;;13.67;8.37;;;1.60;99.90;;;;;;5045914;28;20206;-79
2021/12/28 06:52:45;;;;;;;14.00;8.90;;;1.60;99.90;;;;;;5028524;28;20210;-80
2021/12/28 06:55:11;;;;;;;14.63;8.90;;;1.60;99.90;;;;;;5028715;28;20204;-81
2021/12/28 06:57:37;;;;;;;17.83;9.23;;;1.60;99.90;;;;;;5028372;28;20214;-78
2021/12/28 07:00:07;;;;;;;13.87;9.60;;;1.50;99.90;;;;;;5028529;28;20190;-79
2021/12/28 07:02:32;;;;;;;15.07;9.73;;;1.50;99.90;;;;;;5044885;28;20186;-79
2021/12/28 07:04:58;;;;;;;16.40;9.77;;;1.50;99.90;;;;;;5024420;28;20206;-81
2021/12/28 07:07:26;;;;;;;20.53;12.10;;;1.40;99.90;;;;;;5025399;28;20186;-80
2021/12/28 07:09:52;;;;;;;18.47;11.50;;;1.40;99.90;;;;;;5042338;28;20210;-79
2021/12/28 07:12:18;;;;;;;21.70;11.53;;;1.30;99.90;;;;;;5021593;28;20197;-81
2021/12/28 07:14:43;;;;;;;18.13;10.17;;;1.30;99.90;;;;;;5023221;28;20212;-80
2021/12/28 07:17:09;;;;;;;20.13;10.90;;;1.30;99.90;;;;;;5022309;28;20202;-79
2021/12/28 07:19:34;;;;;;;16.70;10.07;;;1.30;99.90;;;;;;5040378;28;20296;-79
2021/12/28 07:22:00;;;;;;;15.93;9.47;;;1.30;99.90;;;;;;5021910;28;20186;-80
2021/12/28 07:24:26;;;;;;;15.33;9.50;;;1.20;99.90;;;;;;5022758;28;20206;-79
2021/12/28 07:26:53;;;;;;;16.27;9.80;;;1.20;99.90;;;;;;5040235;28;20189;-79
2021/12/28 07:29:20;;;;;;;17.43;10.90;;;1.10;99.90;;;;;;5039756;28;20190;-79
2021/12/28 07:31:45;;;;;;;17.43;10.27;;;1.00;99.90;;;;;;5037845;28;20221;-79
2021/12/28 07:34:11;;;;;;;24.37;13.20;;;1.00;99.90;;;;;;5039898;28;20217;-83
2021/12/28 07:36:37;;;;;;;20.07;12.47;;;0.90;99.90;;;;;;5022543;28;20189;-79
2021/12/28 07:39:04;;;;;;;29.10;14.03;;;0.80;99.90;;;;;;5022390;28;20520;-79
2021/12/28 07:41:30;;;;;;;33.97;17.73;;;0.80;99.90;;;;;;5040071;28;20197;-80
2021/12/28 07:43:56;;;;;;;19.20;11.10;;;0.70;99.90;;;;;;5039680;28;20683;-79
2021/12/28 07:46:21;;;;;;;22.97;13.23;;;0.60;99.90;;;;;;5022608;28;20193;-80
2021/12/28 07:48:47;;;;;;;16.77;9.90;;;0.70;99.90;;;;;;5022401;28;20286;-79
2021/12/28 07:51:13;;;;;;;15.47;9.90;;;0.70;99.90;;;;;;5021709;28;20210;-81
2021/12/28 07:53:39;;;;;;;18.30;11.00;;;0.80;99.90;;;;;;5041485;28;20211;-78
2021/12/28 07:56:05;;;;;;;17.63;10.43;;;0.80;99.90;;;;;;5044963;28;20244;-78
2021/12/28 07:58:30;;;;;;;18.63;9.30;;;0.80;99.90;;;;;;5047815;28;20212;-79
2021/12/28 08:00:56;;;;;;;15.20;9.10;;;0.90;99.90;;;;;;5030092;28;20599;-78
2021/12/28 08:03:23;;;;;;;19.00;11.20;;;0.90;99.90;;;;;;5048227;28;21004;-81
2021/12/28 08:05:49;;;;;;;30.20;16.90;;;0.90;99.90;;;;;;5030151;28;20186;-80
2021/12/28 08:08:15;;;;;;;26.87;14.37;;;0.90;99.90;;;;;;5048380;28;20299;-79
2021/12/28 08:10:40;;;;;;;25.47;14.73;;;0.90;99.90;;;;;;5030604;28;20967;-79
2021/12/28 08:13:06;;;;;;;22.47;13.57;;;0.90;99.90;;;;;;5047482;28;20416;-79
2021/12/28 08:15:32;;;;;;;18.20;10.50;;;0.90;99.90;;;;;;5048536;28;20181;-79
2021/12/28 08:17:58;;;;;;;23.17;13.27;;;0.90;99.90;;;;;;5048377;28;20182;-79
2021/12/28 08:20:23;;;;;;;23.77;12.90;;;0.90;99.90;;;;;;5047880;28;20182;-79
2021/12/28 08:22:49;;;;;;;23.43;14.47;;;1.00;99.90;;;;;;5030072;28;20174;-79
2021/12/28 08:25:17;;;;;;;20.73;12.37;;;1.00;99.90;;;;;;5030435;28;20660;-81
2021/12/28 08:27:43;;;;;;;21.17;12.23;;;1.00;99.90;;;;;;5048190;28;20178;-79
2021/12/28 08:30:11;;;;;;;16.77;9.30;;;1.10;99.90;;;;;;5027552;28;20501;-79
2021/12/28 08:32:37;;;;;;;12.60;8.63;;;1.00;99.90;;;;;;5029739;28;20182;-79
2021/12/28 08:35:05;;;;;;;14.43;7.97;;;1.00;99.90;;;;;;5043444;28;20216;-79
2021/12/28 08:37:31;;;;;;;15.40;9.10;;;1.00;99.90;;;;;;5026664;28;20170;-79
2021/12/28 08:39:57;;;;;;;14.77;9.23;;;0.90;99.90;;;;;;5047011;28;20190;-79
2021/12/28 08:42:23;;;;;;;12.03;8.33;;;1.00;99.90;;;;;;5046758;28;20183;-79
2021/12/28 08:44:50;;;;;;;12.87;8.93;;;1.00;99.90;;;;;;5046991;28;20208;-79
2021/12/28 08:47:16;;;;;;;14.67;9.37;;;1.00;99.90;;;;;;5029825;28;20320;-79
2021/12/28 08:49:42;;;;;;;12.80;7.97;;;1.10;99.90;;;;;;5029547;28;20201;-79
2021/12/28 08:52:07;;;;;;;14.17;8.20;;;1.20;99.90;;;;;;5029779;28;20644;-80
2021/12/28 08:54:33;;;;;;;13.10;7.97;;;1.20;99.90;;;;;;5045765;28;20293;-80
2021/12/28 08:56:59;;;;;;;11.47;8.07;;;1.30;99.90;;;;;;5048526;28;20222;-80
2021/12/28 08:59:25;;;;;;;12.50;8.13;;;1.30;99.90;;;;;;5029789;28;20182;-79
2021/12/28 09:01:51;;;;;;;16.13;9.80;;;1.40;99.90;;;;;;5029958;28;20186;-82
2021/12/28 09:04:18;;;;;;;15.53;9.27;;;1.40;99.90;;;;;;5047755;28;20225;-79
2021/12/28 09:06:47;;;;;;;13.33;8.33;;;1.40;99.90;;;;;;5047299;28;20175;-80
2021/12/28 09:09:13;;;;;;;13.17;7.93;;;1.50;99.90;;;;;;5029884;28;20191;-81
2021/12/28 09:11:38;;;;;;;13.63;8.27;;;1.50;99.90;;;;;;5030134;28;20197;-81
2021/12/28 09:14:04;;;;;;;14.57;8.43;;;1.60;99.90;;;;;;5046551;28;20210;-81
2021/12/28 09:16:30;;;;;;;15.77;8.90;;;1.80;99.90;;;;;;5030593;28;20178;-80
2021/12/28 09:18:55;;;;;;;13.80;8.73;;;1.90;99.90;;;;;;5028955;28;20674;-80
2021/12/28 09:21:21;;;;;;;15.13;9.30;;;2.00;99.90;;;;;;5029589;28;20218;-81
2021/12/28 09:23:47;;;;;;;14.30;8.80;;;2.20;99.90;;;;;;5045511;28;20800;-79
2021/12/28 09:26:13;;;;;;;16.70;8.73;;;2.30;99.90;;;;;;5046957;28;20280;-79
2021/12/28 09:28:38;;;;;;;37.07;19.60;;;2.30;99.90;;;;;;5046715;28;20708;-79
2021/12/28 09:31:04;;;;;;;37.87;22.57;;;2.30;99.90;;;;;;5046945;28;20217;-81
2021/12/28 09:33:30;;;;;;;17.20;11.07;;;2.40;99.90;;;;;;5030066;28;20667;-79
2021/12/28 09:35:56;;;;;;;16.70;9.83;;;2.40;99.90;;;;;;5024463;28;20178;-79
2021/12/28 09:38:22;;;;;;;16.27;9.27;;;2.40;99.90;;;;;;5024156;28;20192;-80
2021/12/28 09:40:50;;;;;;;14.80;9.13;;;2.40;99.90;;;;;;5043470;28;20190;-79
2021/12/28 09:43:16;;;;;;;15.57;8.80;;;2.40;99.90;;;;;;5042463;28;20230;-79
2021/12/28 09:45:42;;;;;;;16.53;9.43;;;2.30;99.90;;;;;;5044005;28;20218;-79
2021/12/28 09:48:09;;;;;;;19.47;8.87;;;2.40;99.90;;;;;;5043442;28;20198;-79
2021/12/28 09:50:39;;;;;;;18.00;10.83;;;2.40;99.90;;;;;;5043236;28;20228;-79
2021/12/28 09:53:05;;;;;;;16.87;9.20;;;2.40;99.90;;;;;;5025396;28;20280;-80
2021/12/28 09:55:31;;;;;;;15.43;9.07;;;2.60;99.90;;;;;;5043338;28;20186;-79
2021/12/28 09:57:58;;;;;;;18.70;10.07;;;2.70;99.90;;;;;;5043083;28;20556;-79
2021/12/28 10:00:24;;;;;;;16.73;10.47;;;2.90;99.90;;;;;;5025071;28;20182;-80
2021/12/28 10:02:50;;;;;;;20.07;9.87;;;3.00;99.90;;;;;;5025113;28;20193;-79
2021/12/28 10:05:21;;;;;;;15.67;10.30;;;3.10;99.90;;;;;;5025100;28;20580;-79
2021/12/28 10:07:56;;;;;;;19.10;10.60;;;3.20;99.90;;;;;;5025430;28;20228;-80
2021/12/28 10:10:33;;;;;;;19.10;12.23;;;3.40;99.90;;;;;;5041997;28;20316;-79
2021/12/28 10:13:08;;;;;;;18.03;10.27;;;3.40;99.90;;;;;;5042879;28;20316;-79
2021/12/28 10:15:39;;;;;;;22.93;12.87;;;3.60;99.90;;;;;;5024972;28;20605;-79
2021/12/28 10:18:08;;;;;;;18.57;9.70;;;3.70;99.90;;;;;;5041651;28;20190;-79
2021/12/28 10:20:46;;;;;;;16.43;10.10;;;3.80;99.90;;;;;;5042673;28;20367;-80
2021/12/28 10:23:15;;;;;;;19.23;9.57;;;3.80;99.90;;;;;;5042423;28;20247;-79
2021/12/28 10:25:44;;;;;;;14.17;8.93;;;3.80;99.90;;;;;;5042536;28;20271;-79
2021/12/28 10:28:13;;;;;;;18.13;10.23;;;3.80;99.90;;;;;;5042643;28;20707;-80
2021/12/28 10:30:48;;;;;;;18.53;9.20;;;3.90;99.90;;;;;;5023974;28;20206;-79
2021/12/28 10:33:16;;;;;;;16.73;9.60;;;3.90;99.90;;;;;;5042202;28;20202;-79
2021/12/28 10:35:46;;;;;;;15.77;8.63;;;4.00;99.90;;;;;;5024576;28;20772;-80
2021/12/28 10:38:15;;;;;;;15.03;7.77;;;4.00;99.90;;;;;;5024676;28;20704;-80
2021/12/28 10:40:44;;;;;;;23.00;12.20;;;4.10;99.90;;;;;;5024680;28;20189;-79
2021/12/28 10:43:17;;;;;;;13.97;8.17;;;4.30;99.90;;;;;;5024161;28;20228;-79
2021/12/28 10:45:44;;;;;;;15.43;9.27;;;4.40;99.90;;;;;;5024489;28;20277;-79
2021/12/28 10:48:20;;;;;;;15.10;9.20;;;4.40;99.90;;;;;;5042349;28;20563;-78
2021/12/28 10:50:48;;;;;;;12.70;7.50;;;4.50;99.90;;;;;;5023635;28;20256;-79
2021/12/28 10:53:18;;;;;;;11.17;7.37;;;4.60;99.90;;;;;;5039950;28;20317;-81
2021/12/28 10:55:45;;;;;;;12.10;7.27;;;4.60;99.90;;;;;;5022438;28;20209;-80
2021/12/28 10:58:25;;;;;;;11.43;6.47;;;4.60;99.90;;;;;;5023048;28;20549;-81
2021/12/28 11:00:52;;;;;;;12.20;6.63;;;4.60;99.90;;;;;;5039244;28;20307;-80
2021/12/28 11:03:27;;;;;;;11.77;6.80;;;4.50;99.90;;;;;;5021427;28;20313;-80
2021/12/28 11:05:55;;;;;;;8.90;6.60;;;4.50;99.90;;;;;;5021802;28;20190;-81
2021/12/28 11:08:24;;;;;;;11.83;6.73;;;4.50;99.90;;;;;;5022671;28;20182;-81
2021/12/28 11:10:54;;;;;;;12.53;6.73;;;4.50;99.90;;;;;;5038461;28;20357;-79
2021/12/28 11:13:22;;;;;;;10.87;6.50;;;4.50;99.90;;;;;;5022401;28;20300;-79
2021/12/28 11:15:48;;;;;;;9.50;6.23;;;4.50;99.90;;;;;;5022337;28;20183;-79
2021/12/28 11:18:33;;;;;;;14.07;7.40;;;4.50;99.90;;;;;;5039774;28;20632;-81
2021/12/28 11:21:11;;;;;;;10.90;6.60;;;4.50;99.90;;;;;;5022400;28;20674;-80
2021/12/28 11:23:37;;;;;;;10.37;5.97;;;4.50;99.90;;;;;;5021743;28;20617;-79
2021/12/28 11:26:08;;;;;;;9.47;6.30;;;4.60;99.90;;;;;;5026168;28;20256;-79
2021/12/28 11:28:35;;;;;;;8.93;5.57;;;4.70;99.90;;;;;;5029119;28;20190;-81
2021/12/28 11:31:16;;;;;;;87.20;49.83;;;4.70;99.90;;;;;;5048365;28;20206;-79
2021/12/28 11:33:51;;;;;;;47.07;25.57;;;4.70;99.90;;;;;;5049069;28;20698;-80
2021/12/28 11:36:19;;;;;;;23.77;15.03;;;4.80;99.90;;;;;;5031832;28;20656;-79
2021/12/28 11:38:46;;;;;;;11.40;9.00;;;4.80;99.90;;;;;;5031304;28;20178;-80
2021/12/28 11:41:12;;;;;;;8.67;6.23;;;4.80;99.90;;;;;;5047581;28;20209;-80
2021/12/28 11:43:39;;;;;;;9.77;6.97;;;4.90;99.90;;;;;;5049085;28;20202;-80
2021/12/28 11:46:05;;;;;;;12.63;10.67;;;4.90;99.90;;;;;;5030977;28;20198;-79
2021/12/28 11:48:32;;;;;;;8.90;6.63;;;4.90;99.90;;;;;;5048310;28;20535;-80
2021/12/28 11:50:59;;;;;;;9.83;6.63;;;4.90;99.90;;;;;;5048711;28;20280;-79
2021/12/28 11:53:27;;;;;;;17.10;7.13;;;5.00;99.90;;;;;;5030895;28;20256;-79
2021/12/28 11:55:56;;;;;;;9.67;6.57;;;5.10;99.90;;;;;;5048722;28;20182;-81
2021/12/28 11:59:14;;;;;;;8.80;5.77;;;5.10;99.90;;;;;;5047091;28;20179;-80
2021/12/28 12:01:44;;;;;;;8.07;5.80;;;5.00;99.90;;;;;;5003805;28;20205;-81
2021/12/28 12:07:06;;;;;;;10.17;6.30;;;4.80;99.90;;;;;;5049066;28;20182;-79
2021/12/28 12:09:33;;;;;;;10.03;6.73;;;4.80;99.90;;;;;;5030790;28;20205;-80
2021/12/28 12:12:07;;;;;;;10.77;7.67;;;4.80;99.90;;;;;;5046486;28;20218;-79
2021/12/28 12:14:57;;;;;;;10.37;6.60;;;4.80;99.90;;;;;;5030139;28;20203;-79
2021/12/28 12:17:37;;;;;;;10.90;6.50;;;4.80;99.90;;;;;;5039728;28;20202;-79
2021/12/28 12:20:22;;;;;;;8.80;5.87;;;4.80;99.90;;;;;;5030889;28;20182;-80
2021/12/28 12:22:55;;;;;;;9.70;6.47;;;4.90;99.90;;;;;;5047912;28;20258;-80
2021/12/28 12:25:32;;;;;;;10.03;5.87;;;5.00;99.90;;;;;;5046881;28;20182;-79
2021/12/28 12:28:04;;;;;;;7.30;5.60;;;5.10;99.90;;;;;;5029892;28;20204;-79
2021/12/28 12:30:32;;;;;;;9.17;5.13;;;5.10;99.90;;;;;;5029106;28;20221;-80
2021/12/28 12:33:08;;;;;;;8.47;5.87;;;5.10;99.90;;;;;;5050220;28;20182;-81
2021/12/28 12:35:55;;;;;;;8.47;5.13;;;5.10;99.90;;;;;;5030321;28;20754;-78
2021/12/28 12:38:24;;;;;;;8.23;4.97;;;5.10;99.90;;;;;;5046467;28;20617;-80
2021/12/28 12:40:58;;;;;;;7.23;5.40;;;5.20;99.90;;;;;;5046780;28;20210;-78
2021/12/28 12:43:45;;;;;;;8.93;4.93;;;5.20;99.90;;;;;;5047519;28;20205;-79
2021/12/28 12:46:46;;;;;;;6.87;5.00;;;5.20;99.90;;;;;;5047016;28;20251;-79
2021/12/28 12:49:19;;;;;;;7.67;5.33;;;5.30;99.90;;;;;;5014391;28;20201;-80
2021/12/28 12:51:49;;;;;;;7.50;5.03;;;5.20;99.90;;;;;;5047001;28;20700;-79